createdAt,value
2022-10-26T00:21:15.216Z,0.15
2022-10-26T00:51:17.250Z,0.21
2022-10-26T01:21:27.228Z,0.16
2022-10-26T01:51:29.353Z,0.26
2022-10-26T02:21:30.379Z,0.06
2022-10-26T02:51:35.823Z,0.13
2022-10-26T03:21:38.991Z,0.42
2022-10-26T03:51:49.927Z,0.44
2022-10-26T04:21:50.924Z,0.09
2022-10-26T04:51:52.907Z,0.08
2022-10-26T05:21:55.912Z,0.23
2022-10-26T05:51:56.902Z,0.26
2022-10-26T06:22:06.946Z,0.29
2022-10-26T06:52:09.080Z,0.34
2022-10-26T07:22:19.011Z,0.37
2022-10-26T07:52:20.937Z,0.19
2022-10-26T08:22:22.031Z,0.17
2022-10-26T08:52:29.191Z,0.26
2022-10-26T09:22:30.171Z,0.23
2022-10-26T09:52:37.205Z,0.57
2022-10-26T10:22:38.319Z,0.43
2022-10-26T10:52:39.425Z,0.65
2022-10-26T11:22:41.238Z,0.46
2022-10-26T11:52:42.345Z,0.31
2022-10-26T12:22:43.400Z,0.22
2022-10-26T12:52:53.300Z,1.12
2022-10-26T13:22:54.421Z,0.99
2022-10-26T13:52:56.386Z,0.9
2022-10-26T14:22:56.466Z,0.31
2022-10-26T14:52:58.452Z,0.49
2022-10-26T15:23:00.305Z,0.36
2022-10-26T15:53:02.275Z,0.36
2022-10-26T16:23:05.480Z,0.37
2022-10-26T16:53:06.442Z,0.23
2022-10-26T17:23:13.341Z,0.06
2022-10-26T17:53:13.454Z,0.09
2022-10-26T18:23:23.490Z,0.11
2022-10-26T18:53:27.486Z,0.18
2022-10-26T19:23:28.416Z,0.07
2022-10-26T19:53:30.438Z,0.07
2022-10-26T20:01:07.000Z,0.2
2022-10-26T20:31:09.460Z,0.13
2022-10-26T20:51:24.000Z,0.11
2022-10-26T21:21:27.760Z,0.08
2022-10-26T21:51:28.000Z,0.03
2022-10-26T22:21:38.000Z,0.08
2022-10-26T22:51:40.000Z,0.28
2022-10-26T23:21:41.816Z,0.12
2022-10-26T23:51:42.000Z,0.15
